Shekhupura, Pakistan
Current Conditions -  °F | °C
As of 12:55 PM on Friday 31 Oct 2014 (Local Time) from OPLA Reporting Station
Haze Haze  
Wind Chill: 81°   Ceiling: Unl
Heat Index: 81°   Visibility: 2.5mi
Dew Point: 52°   Wind: 6mph
Humidity: 37%   Direction: 340°NNW
Pressure: 30"   Gusts: NA
Location:  31.72°N, 73.98°E
Report Text: OPLA 310755Z 34005KT 4000 HZ NSC 27/11 Q1016 A30.00
Loading
Personal Weather Stations






























Interactive Weather Map
Tropical Storm Tracking
New forecast layout! Learn more

10-Day Weather Forecast

Advertisements
Track Severe Weather on mobile